• Join FlightAware (Why Join?)
  • Login
  • US Flag 
04:06AM EDT


 

Airport Tracker/Info


-or-


 

Live Flight TrackerFlight Track Log ✈ AAY875 ✈ 23-Mar-2014 ✈ KBGR - KPIE

Flight Track Log - Related Links

Times and Time Zones

All times are in EDT time to prevent confusion due to time zone crossing. See the AAY875 flight status page for this flight to view local times or setup timezone preferences in your user account.

Time Position Orientation Groundspeed Altitude Reporting Facility
EDT Latitude Longitude Course Direction KTS MPH feet Rate Location/Type
06:27PM 44.8264 -68.8997 218° Southwest 218 251 2,900  Level Boston Center
06:28PM 44.7722 -68.9589 218° Southwest 239 275 6,100 3,480 Climbing Boston Center
06:29PM 44.7172 -69.0289 222° Southwest 255 293 10,100 2,940 Climbing Boston Center
06:30PM 44.6644 -69.1092 227° Southwest 270 311 12,100 2,220 Climbing Boston Center
06:31PM 44.5967 -69.2050 225° Southwest 330 380 14,700 3,000 Climbing Boston Center
06:32PM 44.5306 -69.2958 224° Southwest 334 384 18,300 2,700 Climbing Boston Center
06:33PM 44.4647 -69.3869 225° Southwest 328 377 20,400 1,860 Climbing Boston Center
06:34PM 44.3981 -69.4783 224° Southwest 330 380 22,200 2,040 Climbing Boston Center
06:35PM 44.3306 -69.5719 225° Southwest 336 387 24,600 2,160 Climbing Boston Center
06:36PM 44.2675 -69.6614 225° Southwest 325 374 26,600 1,980 Climbing Boston Center
06:37PM 44.2042 -69.7456 224° Southwest 314 361 28,600 1,440 Climbing Boston Center
06:38PM 44.1442 -69.8278 225° Southwest 304 350 29,600 660 Climbing Boston Center
06:39PM 44.0700 -69.9303 225° Southwest 307 353 30,000 180 Climbing Boston Center
06:40PM 44.0064 -70.0156 224° Southwest 311 358 30,000  Level Boston Center
06:41PM 43.9425 -70.1022 224° Southwest 315 362 30,000  Level Boston Center
06:42PM 43.8803 -70.1933 227° Southwest 319 367 30,000  Level Boston Center
06:43PM 43.8172 -70.2772 224° Southwest 312 359 30,000  Level Boston Center
06:44PM 43.7522 -70.3625 223° Southwest 314 361 30,000  Level Boston Center
06:45PM 43.6881 -70.4489 224° Southwest 315 362 30,000  Level Boston Center
06:46PM 43.6247 -70.5314 223° Southwest 311 358 30,000  Level Boston Center
06:47PM 43.5600 -70.6172 224° Southwest 316 364 30,000  Level Boston Center
06:49PM 43.4325 -70.7886 222° Southwest 318 366 30,000  Level Boston Center
06:51PM 43.3667 -70.8742 223° Southwest 324 373 30,000  Level Boston Center
06:52PM 43.3031 -70.9547 223° Southwest 317 365 30,000  Level Boston Center
06:53PM 43.2261 -71.0556 224° Southwest 316 364 30,000  Level Boston Center
06:54PM 43.1625 -71.1400 224° Southwest 318 366 30,000  Level Boston Center
06:55PM 43.0975 -71.2269 224° Southwest 323 372 30,000  Level Boston Center
06:56PM 43.0322 -71.3097 223° Southwest 324 373 30,000  Level Boston Center
06:57PM 42.9678 -71.3931 223° Southwest 319 367 30,000  Level Boston Center
06:58PM 42.9028 -71.4767 223° Southwest 318 366 30,000  Level Boston Center
06:59PM 42.8353 -71.5633 223° Southwest 318 366 30,000  Level Boston Center
07:00PM 42.7722 -71.6500 225° Southwest 319 367 30,000  Level Boston Center
07:01PM 42.7094 -71.7325 224° Southwest 317 365 30,000  Level Boston Center
07:02PM 42.6464 -71.8183 225° Southwest 318 366 30,000  Level Boston Center
07:03PM 42.5822 -71.9019 224° Southwest 318 366 30,000  Level Boston Center
07:04PM 42.5189 -71.9872 225° Southwest 319 367 30,000  Level Boston Center
07:05PM 42.4422 -72.0886 224° Southwest 319 367 30,000  Level Boston Center
07:06PM 42.3772 -72.1728 224° Southwest 322 371 30,000  Level Boston Center
07:07PM 42.3139 -72.2572 225° Southwest 321 369 30,000  Level Boston Center
07:08PM 42.2483 -72.3425 224° Southwest 322 371 30,000  Level Boston Center
07:09PM 42.1844 -72.4275 225° Southwest 322 371 30,000  Level Boston Center
07:10PM 42.1186 -72.5119 224° Southwest 322 371 30,000  Level Boston Center
07:11PM 42.0542 -72.5953 224° Southwest 323 372 30,000  Level Boston Center
07:12PM 41.9883 -72.6806 224° Southwest 324 373 30,000  Level Boston Center
07:13PM 41.9233 -72.7650 224° Southwest 324 373 30,000  Level Boston Center
07:14PM 41.8581 -72.8492 224° Southwest 324 373 30,000  Level Boston Center
07:15PM 41.7936 -72.9322 224° Southwest 324 373 30,000  Level Boston Center
07:16PM 41.7269 -73.0158 223° Southwest 324 373 30,000  Level Boston Center
07:17PM 41.6472 -73.1178 224° Southwest 329 379 30,000  Level Boston Center
07:18PM 41.5817 -73.2014 224° Southwest 329 379 30,000  Level Boston Center
07:19PM 41.5228 -73.2747 223° Southwest 328 377 30,000  Level Boston Center
07:20PM 41.4433 -73.3758 224° Southwest 330 380 30,000  Level Boston Center
07:21PM 41.3769 -73.4600 224° Southwest 330 380 30,000 360 Level Boston Center
07:22PM 41.3103 -73.5433 223° Southwest 330 380 30,800 780 Climbing Boston Center
07:23PM 41.2492 -73.6314 227° Southwest 329 379 31,600 720 Climbing Boston Center
07:24PM 41.2192 -73.6894 236° Southwest 331 381 32,000 240 Climbing New York Center
07:25PM 41.1606 -73.7861 231° Southwest 336 387 32,000  Level New York Center
07:26PM 41.1039 -73.8828 232° Southwest 341 392 32,000  Level New York Center
07:27PM 41.0450 -73.9789 231° Southwest 341 392 32,000  Level New York Center
07:28PM 40.9883 -74.0753 232° Southwest 341 392 32,000  Level New York Center
07:29PM 40.9292 -74.1739 232° Southwest 341 392 32,000  Level New York Center
07:30PM 40.8725 -74.2644 230° Southwest 341 392 32,000  Level New York Center
07:31PM 40.8131 -74.3656 232° Southwest 341 392 32,000  Level New York Center
07:32PM 40.7539 -74.4611 231° Southwest 341 392 32,000  Level New York Center
07:33PM 40.6947 -74.5564 231° Southwest 341 392 32,000  Level New York Center
07:34PM 40.6372 -74.6544 232° Southwest 341 392 32,000  Level New York Center
07:35PM 40.5778 -74.7547 232° Southwest 341 392 32,000  Level New York Center
07:36PM 40.5142 -74.8439 227° Southwest 341 392 32,000  Level New York Center
07:37PM 40.4464 -74.9356 226° Southwest 346 398 32,000  Level New York Center
07:38PM 40.3828 -75.0269 228° Southwest 346 398 32,000  Level New York Center
07:39PM 40.3147 -75.1208 226° Southwest 351 404 32,000  Level New York Center
07:40PM 40.2486 -75.2144 227° Southwest 351 404 32,000  Level New York Center
07:41PM 40.1825 -75.3108 228° Southwest 351 404 32,000  Level New York Center
07:42PM 40.1119 -75.4067 226° Southwest 362 417 32,000  Level New York Center
07:43PM 40.0436 -75.4997 226° Southwest 362 417 32,000  Level New York Center
07:44PM 39.9708 -75.6031 227° Southwest 362 417 32,000  Level New York Center
07:45PM 39.9042 -75.7014 229° Southwest 362 417 32,000  Level New York Center
07:46PM 39.8394 -75.7994 229° Southwest 356 410 32,000  Level New York Center
07:48PM 39.7044 -76.0178 231° Southwest 358 412 32,000  Level Washington Center
07:49PM 39.6394 -76.1197 230° Southwest 363 418 32,000  Level Washington Center
07:50PM 39.5767 -76.2161 230° Southwest 363 418 32,000  Level Washington Center
07:51PM 39.5114 -76.3125 229° Southwest 363 418 32,000  Level Washington Center
07:52PM 39.4503 -76.4111 231° Southwest 358 412 32,000  Level Washington Center
07:53PM 39.3850 -76.5125 230° Southwest 358 412 32,000  Level Washington Center
07:54PM 39.3197 -76.6136 230° Southwest 364 419 32,000  Level Washington Center
07:55PM 39.2561 -76.7119 230° Southwest 364 419 32,000  Level Washington Center
07:56PM 39.1947 -76.8100 231° Southwest 364 419 32,000  Level Washington Center
07:57PM 39.1292 -76.9108 230° Southwest 364 419 32,000  Level Washington Center
07:58PM 39.0656 -77.0086 230° Southwest 364 419 32,000  Level Washington Center
07:59PM 38.9914 -77.0978 223° Southwest 364 419 32,000  Level Washington Center
08:00PM 38.9133 -77.1817 220° Southwest 364 419 32,000  Level Washington Center
08:01PM 38.8372 -77.2681 221° Southwest 371 427 32,000  Level Washington Center
08:02PM 38.7608 -77.3514 220° Southwest 371 427 32,000  Level Washington Center
08:03PM 38.6844 -77.4347 220° Southwest 366 421 32,000  Level Washington Center
08:04PM 38.6144 -77.5100 220° Southwest 366 421 32,000  Level Washington Center
08:05PM 38.5381 -77.5931 220° Southwest 366 421 32,000  Level Washington Center
08:06PM 38.4597 -77.6758 220° Southwest 366 421 32,000  Level Washington Center
08:07PM 38.3853 -77.7583 221° Southwest 366 421 32,000  Level Washington Center
08:08PM 38.3064 -77.8433 220° Southwest 366 421 32,000  Level Washington Center
08:09PM 38.2278 -77.9283 220° Southwest 371 427 32,000  Level Washington Center
08:10PM 38.1447 -78.0128 219° Southwest 376 433 32,000  Level Washington Center
08:11PM 38.0681 -78.0947 220° Southwest 376 433 32,000  Level Washington Center
08:12PM 37.9953 -78.1714 220° Southwest 376 433 32,000  Level Washington Center
08:13PM 37.9058 -78.2606 218° Southwest 382 440 32,000  Level Washington Center
08:14PM 37.8206 -78.3389 216° Southwest 382 440 32,000  Level Washington Center
08:15PM 37.7375 -78.4200 218° Southwest 382 440 32,000  Level Washington Center
08:16PM 37.6542 -78.4956 216° Southwest 377 434 32,000  Level Washington Center
08:17PM 37.5708 -78.5761 217° Southwest 377 434 32,000  Level Washington Center
08:18PM 37.4811 -78.6617 217° Southwest 372 428 32,000  Level Washington Center
08:19PM 37.3978 -78.7394 217° Southwest 372 428 32,000  Level Washington Center
08:20PM 37.3144 -78.8142 216° Southwest 372 428 32,000  Level Washington Center
08:21PM 37.2311 -78.8917 217° Southwest 372 428 32,000  Level Washington Center
08:22PM 37.1475 -78.9689 216° Southwest 372 428 32,000  Level Washington Center
08:23PM 37.0725 -79.0383 216° Southwest 377 434 32,000  Level Washington Center
08:24PM 36.9908 -79.1153 217° Southwest 377 434 32,000  Level Washington Center
08:25PM 36.9072 -79.1922 216° Southwest 372 428 32,000  Level Washington Center
08:26PM 36.8258 -79.2661 216° Southwest 372 428 32,000  Level Washington Center
08:27PM 36.7419 -79.3450 217° Southwest 372 428 32,000  Level Washington Center
08:28PM 36.6517 -79.4261 216° Southwest 372 428 32,000  Level Washington Center
08:30PM 36.4719 -79.5906 216° Southwest 370 426 32,000  Level Atlanta Center
08:31PM 36.3869 -79.6647 215° Southwest 370 426 32,000  Level Atlanta Center
08:32PM 36.3042 -79.7414 217° Southwest 370 426 32,000  Level Atlanta Center
08:33PM 36.2133 -79.8236 216° Southwest 375 432 32,000  Level Atlanta Center
08:34PM 36.1322 -79.8944 215° Southwest 375 432 32,000  Level Atlanta Center
08:35PM 36.0492 -79.9681 216° Southwest 375 432 32,000  Level Atlanta Center
08:36PM 35.9531 -80.0242 205° Southwest 375 432 32,000  Level Atlanta Center
08:37PM 35.8625 -80.0672 201° Southwest 384 442 32,000  Level Atlanta Center
08:38PM 35.7619 -80.1181 202° Southwest 391 450 32,000  Level Atlanta Center
08:39PM 35.6572 -80.1692 202° Southwest 396 456 32,000  Level Atlanta Center
08:40PM 35.5589 -80.2222 204° Southwest 396 456 32,000  Level Atlanta Center
08:41PM 35.4478 -80.2758 201° Southwest 389 448 32,000  Level Atlanta Center
08:42PM 35.3469 -80.3264 202° Southwest 394 453 32,000  Level Atlanta Center
08:43PM 35.2483 -80.3767 203° Southwest 394 453 32,000  Level Atlanta Center
08:44PM 35.1478 -80.4267 202° Southwest 388 447 32,000  Level Atlanta Center
08:47PM 34.9242 -80.5356 202° Southwest 393 452 32,000  Level Jacksonville Center
08:48PM 34.8208 -80.5889 203° Southwest 398 458 32,000  Level Jacksonville Center
08:49PM 34.7156 -80.6422 203° Southwest 388 447 32,000  Level Jacksonville Center
08:50PM 34.6142 -80.6928 202° Southwest 388 447 32,000  Level Jacksonville Center
08:51PM 34.5189 -80.7331 199° South 403 464 32,000  Level Jacksonville Center
08:52PM 34.4178 -80.7883 204° Southwest 408 470 32,000  Level Jacksonville Center
08:53PM 34.3161 -80.8361 201° Southwest 408 470 32,000  Level Jacksonville Center
08:54PM 34.2086 -80.8889 202° Southwest 400 460 32,000  Level Jacksonville Center
08:55PM 34.1092 -80.9364 202° Southwest 390 449 32,000  Level Jacksonville Center
08:56PM 34.0056 -80.9861 202° Southwest 395 455 32,000  Level Jacksonville Center
08:57PM 33.9042 -81.0333 201° Southwest 395 455 32,000  Level Jacksonville Center
08:58PM 33.8025 -81.0831 202° Southwest 395 455 32,000  Level Jacksonville Center
08:59PM 33.6989 -81.1350 203° Southwest 395 455 32,000  Level Jacksonville Center
09:00PM 33.5994 -81.1844 202° Southwest 395 455 32,000  Level Jacksonville Center
09:01PM 33.4958 -81.2364 203° Southwest 395 455 32,000  Level Jacksonville Center
09:02PM 33.3942 -81.2856 202° Southwest 395 455 32,000  Level Jacksonville Center
09:03PM 33.2925 -81.3344 202° Southwest 390 449 32,000  Level Jacksonville Center
09:04PM 33.1908 -81.3833 202° Southwest 390 449 32,000  Level Jacksonville Center
09:05PM 33.0911 -81.4322 202° Southwest 390 449 32,000  Level Jacksonville Center
09:06PM 32.9894 -81.4833 203° Southwest 390 449 32,000  Level Jacksonville Center
09:07PM 32.8878 -81.5319 202° Southwest 390 449 32,000  Level Jacksonville Center
09:08PM 32.7819 -81.5831 202° Southwest 395 455 32,000  Level Jacksonville Center
09:09PM 32.6800 -81.6339 203° Southwest 400 460 32,000  Level Jacksonville Center
09:10PM 32.5867 -81.6769 201° Southwest 400 460 32,000  Level Jacksonville Center
09:11PM 32.4744 -81.7328 203° Southwest 395 455 32,000  Level Jacksonville Center
09:12PM 32.3642 -81.7686 195° South 404 465 32,000  Level Jacksonville Center
09:13PM 32.2600 -81.7894 190° South 418 481 32,000  Level Jacksonville Center
09:14PM 32.1369 -81.8181 191° South 418 481 32,000  Level Jacksonville Center
09:15PM 32.0347 -81.8411 191° South 418 481 32,000  Level Jacksonville Center
09:16PM 31.9078 -81.8647 189° South 418 481 32,000  Level Jacksonville Center
09:17PM 31.7950 -81.8928 192° South 418 481 32,000  Level Jacksonville Center
09:18PM 31.6908 -81.9136 190° South 423 487 32,000  Level Jacksonville Center
09:19PM 31.5636 -81.9417 191° South 428 493 32,000  Level Jacksonville Center
09:20PM 31.4617 -81.9622 190° South 428 493 32,000  Level Jacksonville Center
09:21PM 31.3450 -81.9900 191° South 433 498 32,000  Level Jacksonville Center
09:22PM 31.2303 -82.0156 191° South 427 491 32,000  Level Jacksonville Center
09:23PM 31.1133 -82.0383 189° South 427 491 32,000  Level Jacksonville Center
09:24PM 30.9842 -82.0686 191° South 433 498 32,000  Level Jacksonville Center
09:25PM 30.8694 -82.0914 190° South 428 493 32,000  Level Jacksonville Center
09:26PM 30.7547 -82.1142 190° South 428 493 32,000  Level Jacksonville Center
09:27PM 30.6422 -82.1392 191° South 428 493 32,000  Level Jacksonville Center
09:28PM 30.5275 -82.1594 189° South 428 493 32,000  Level Jacksonville Center
09:29PM 30.4108 -82.1844 190° South 428 493 32,000  Level Jacksonville Center
09:30PM 30.2961 -82.2117 192° South 428 493 32,000  Level Jacksonville Center
09:31PM 30.1792 -82.2317 188° South 428 493 32,000  Level Jacksonville Center
09:32PM 30.0625 -82.2589 191° South 428 493 32,000 -120 Level Jacksonville Center
09:33PM 29.9456 -82.2861 191° South 428 493 31,800 -900 Descending Jacksonville Center
09:34PM 29.8289 -82.3131 191° South 428 493 30,200 -1,740 Descending Jacksonville Center
09:35PM 29.7078 -82.3331 188° South 433 498 28,400 -1,800 Descending Jacksonville Center
09:36PM 29.5847 -82.3553 189° South 440 506 26,600 -1,680 Descending Jacksonville Center
09:37PM 29.4553 -82.3344 172° South 448 516 25,100 -1,500 Descending Jacksonville Center
09:38PM 29.3381 -82.2517 148° Southeast 463 533 23,600 -1,800 Descending Jacksonville Center
09:39PM 29.2228 -82.1883 154° Southeast 463 533 21,600 -2,160 Descending Jacksonville Center
09:40PM 29.1058 -82.1939 182° South 421 484 19,300 -2,280 Descending Jacksonville Center
09:41PM 28.9975 -82.2136 189° South 410 472 17,100 -2,040 Descending Jacksonville Center
09:42PM 28.8911 -82.2333 189° South 399 459 15,300 -1,380 Descending Jacksonville Center
09:44PM 28.6833 -82.2667 188° South 374 430 13,000 -900 Descending Tampa TRACON
09:45PM 28.5833 -82.2500 172° South 371 427 12,700 -660 Descending Tampa TRACON
09:46PM 28.5000 -82.3167 215° Southwest 343 395 11,700 -1,020 Descending Tampa TRACON
09:47PM 28.4333 -82.4000 228° Southwest 335 386 10,700 -900 Descending Tampa TRACON
09:48PM 28.3833 -82.4833 236° Southwest 337 388 10,000 -360 Descending Tampa TRACON
09:49PM 28.3167 -82.5667 228° Southwest 338 389 10,000  Level Tampa TRACON
09:50PM 28.2500 -82.6500 228° Southwest 340 391 10,000 -180 Level Tampa TRACON
09:51PM 28.1833 -82.7333 228° Southwest 309 356 9,700 -780 Descending Tampa TRACON
09:52PM 28.1333 -82.8000 230° Southwest 276 318 8,500 -1,380 Descending Tampa TRACON
09:53PM 28.0667 -82.8500 214° Southwest 278 320 7,000 -1,320 Descending Tampa TRACON
09:54PM 28.0000 -82.8500 180° South 288 331 5,900 -1,080 Descending Tampa TRACON
09:55PM 27.9333 -82.8500 180° South 287 330 5,000 -960 Descending Tampa TRACON
09:56PM 27.8500 -82.8500 180° South 236 272 4,000 -540 Descending Tampa TRACON
09:57PM 27.8000 -82.8333 164° South 219 252 4,000 -420 Level Tampa TRACON
09:58PM 27.7333 -82.8000 156° South 239 275 3,300 -900 Descending Tampa TRACON
09:59PM 27.7000 -82.7500 127° Southeast 236 272 2,300 -660 Descending Tampa TRACON
10:00PM 27.7167 -82.6833 74° East 217 250 2,000 -180 Descending Tampa TRACON
10:00PM 27.7500 -82.6500 42° Northeast 180 207 2,000 -120 Level Tampa TRACON
10:02PM 27.8000 -82.6667 344° North 146 168 1,800 -420 Descending Tampa TRACON
10:03PM 27.8500 -82.6833 344° North 150 173 1,100 -720 Descending Tampa TRACON
10:04PM 27.8833 -82.6833 360° North 135 155 400 -720 Descending Tampa TRACON